Time;durP1;ratioP1;P1;durP2;ratioP2;P2;SDS_P1;SDS_P2;PMS_P1;PMS_P2;Temp;Humidity;BMP_temperature;BMP_pressure;BME280_temperature;BME280_humidity;BME280_pressure;Samples;Min_cycle;Max_cycle;Signal;HPM_P1;HPM_P2
2022/01/30 00:00:13;;;;;;;26.25;17.55;;;-1.30;99.90;;;;;;5271463;28;20032;-78
2022/01/30 00:02:44;;;;;;;18.30;11.85;;;-1.50;99.90;;;;;;5271407;28;20106;-80
2022/01/30 00:05:15;;;;;;;17.17;11.52;;;-1.60;99.90;;;;;;5270292;28;20159;-79
2022/01/30 00:07:46;;;;;;;20.70;12.50;;;-1.40;99.90;;;;;;5271213;28;20023;-79
2022/01/30 00:10:17;;;;;;;18.73;11.30;;;-1.50;99.90;;;;;;5271310;28;20035;-80
2022/01/30 00:12:52;;;;;;;22.13;11.95;;;-1.50;99.90;;;;;;5271207;28;20078;-78
2022/01/30 00:15:36;;;;;;;24.95;14.00;;;-1.70;99.90;;;;;;5271240;28;20090;-79
2022/01/30 00:18:21;;;;;;;18.27;12.48;;;-1.70;99.90;;;;;;5271020;28;20032;-79
2022/01/30 00:21:18;;;;;;;24.13;12.45;;;-1.50;99.90;;;;;;5269190;28;20052;-78
2022/01/30 00:23:56;;;;;;;22.73;12.85;;;-1.60;99.90;;;;;;5271072;28;20053;-78
2022/01/30 00:26:31;;;;;;;20.10;11.27;;;-1.50;99.90;;;;;;5270968;28;20380;-79
2022/01/30 00:29:03;;;;;;;17.95;11.23;;;-1.70;99.90;;;;;;5270940;28;20036;-79
2022/01/30 00:31:36;;;;;;;20.88;12.57;;;-1.50;99.90;;;;;;5270671;28;20032;-78
2022/01/30 00:34:07;;;;;;;24.65;14.18;;;-1.50;99.90;;;;;;5270862;28;20523;-78
2022/01/30 00:36:38;;;;;;;24.55;13.85;;;-1.80;99.90;;;;;;5270825;28;20154;-79
2022/01/30 00:39:09;;;;;;;23.15;13.30;;;-1.80;99.90;;;;;;5270812;28;20024;-79
2022/01/30 00:41:39;;;;;;;19.55;11.90;;;-1.70;99.90;;;;;;5270762;28;20024;-79
2022/01/30 00:44:10;;;;;;;23.60;12.75;;;-1.60;99.90;;;;;;5270683;28;20070;-78
2022/01/30 00:46:41;;;;;;;22.55;12.07;;;-1.60;99.90;;;;;;5270604;28;20028;-79
2022/01/30 00:49:12;;;;;;;20.73;11.75;;;-1.60;99.90;;;;;;5269098;28;20028;-79
2022/01/30 00:51:43;;;;;;;22.85;13.70;;;-1.80;99.90;;;;;;5270253;28;20032;-79
2022/01/30 00:54:14;;;;;;;23.95;15.55;;;-1.80;99.90;;;;;;5270387;28;20106;-79
2022/01/30 00:56:45;;;;;;;24.15;13.10;;;-1.90;99.90;;;;;;5270469;28;20032;-80
2022/01/30 00:59:16;;;;;;;28.77;14.75;;;-2.10;99.90;;;;;;5270371;28;20020;-80
2022/01/30 01:01:47;;;;;;;23.75;14.32;;;-1.90;99.90;;;;;;5270194;28;20031;-79
2022/01/30 01:04:19;;;;;;;25.25;15.55;;;-2.10;99.90;;;;;;5270278;28;20020;-80
2022/01/30 01:06:50;;;;;;;26.73;14.27;;;-2.20;99.90;;;;;;5269978;28;20489;-79
2022/01/30 01:09:26;;;;;;;23.30;12.82;;;-2.00;99.90;;;;;;5269987;28;20446;-80
2022/01/30 01:12:28;;;;;;;20.17;11.85;;;-2.00;99.90;;;;;;5270057;28;20129;-80
2022/01/30 01:25:55;;;;;;;16.75;10.07;;;-2.00;99.90;;;;;;5269973;28;20031;-82
2022/01/30 01:28:27;;;;;;;17.08;10.90;;;-1.80;99.90;;;;;;5269733;28;20514;-82
2022/01/30 01:30:58;;;;;;;14.50;10.13;;;-2.00;99.90;;;;;;5269180;28;20031;-82
2022/01/30 01:33:49;;;;;;;17.52;10.98;;;-2.10;99.90;;;;;;5269216;28;20085;-83
2022/01/30 01:36:20;;;;;;;18.15;11.88;;;-2.20;99.90;;;;;;5269575;28;20404;-84
2022/01/30 01:38:51;;;;;;;23.23;13.38;;;-2.20;99.90;;;;;;5269662;28;20066;-84
2022/01/30 01:41:24;;;;;;;21.38;13.35;;;-2.30;99.90;;;;;;5269531;28;20245;-81
2022/01/30 01:43:55;;;;;;;20.20;12.48;;;-2.40;99.90;;;;;;5269509;28;20429;-83
2022/01/30 01:46:30;;;;;;;20.25;12.20;;;-2.30;99.90;;;;;;5269343;28;20020;-84
2022/01/30 01:49:01;;;;;;;19.05;12.02;;;-2.10;99.90;;;;;;5269314;28;20036;-84
2022/01/30 01:51:32;;;;;;;20.33;12.77;;;-2.40;99.90;;;;;;5269082;28;20067;-84
2022/01/30 01:54:03;;;;;;;20.08;12.30;;;-2.30;99.90;;;;;;5269270;28;20028;-81
2022/01/30 01:56:34;;;;;;;22.73;12.48;;;-2.30;99.90;;;;;;5269130;28;20491;-78
2022/01/30 01:59:05;;;;;;;21.77;12.32;;;-2.20;99.90;;;;;;5269196;28;20027;-83
2022/01/30 02:01:36;;;;;;;23.42;12.13;;;-2.20;99.90;;;;;;5269153;28;20024;-82
2022/01/30 02:04:07;;;;;;;17.98;10.38;;;-2.20;99.90;;;;;;5267906;28;20540;-75
2022/01/30 02:06:37;;;;;;;22.85;11.93;;;-2.30;99.90;;;;;;5268995;28;20103;-84
2022/01/30 02:09:11;;;;;;;20.63;11.50;;;-2.30;99.90;;;;;;5250986;28;20024;-83
2022/01/30 02:11:45;;;;;;;18.90;10.35;;;-2.30;99.90;;;;;;5268897;28;20085;-83
2022/01/30 02:14:31;;;;;;;20.98;11.27;;;-2.30;99.90;;;;;;5269020;28;20448;-82
2022/01/30 02:28:09;;;;;;;20.08;10.10;;;-2.50;99.90;;;;;;5268758;28;20089;-76
2022/01/30 02:30:47;;;;;;;18.88;9.80;;;-2.40;99.90;;;;;;5268635;28;20028;-83
2022/01/30 02:33:21;;;;;;;20.23;10.38;;;-2.60;99.90;;;;;;5268719;28;20043;-82
2022/01/30 02:35:52;;;;;;;16.13;9.93;;;-2.40;99.90;;;;;;5268765;28;20109;-84
2022/01/30 02:38:24;;;;;;;16.10;10.25;;;-2.40;99.90;;;;;;5267388;28;20036;-84
2022/01/30 02:40:57;;;;;;;18.35;9.60;;;-2.50;99.90;;;;;;5268704;28;20024;-84
2022/01/30 02:43:36;;;;;;;15.93;8.80;;;-2.70;99.90;;;;;;5269341;28;20035;-82
2022/01/30 02:46:20;;;;;;;16.88;9.48;;;-2.50;99.90;;;;;;5272943;28;20103;-84
2022/01/30 02:48:55;;;;;;;16.88;9.27;;;-2.30;99.90;;;;;;5272756;28;20548;-83
2022/01/30 02:51:34;;;;;;;14.88;8.77;;;-2.50;99.90;;;;;;5272653;28;20122;-83
2022/01/30 02:54:06;;;;;;;17.08;9.35;;;-2.40;99.90;;;;;;5272785;28;20020;-83
2022/01/30 02:56:37;;;;;;;18.70;10.38;;;-2.50;99.90;;;;;;5271413;28;20027;-83
2022/01/30 02:59:09;;;;;;;14.02;9.13;;;-2.50;99.90;;;;;;5272721;28;20482;-83
2022/01/30 03:01:40;;;;;;;17.67;9.27;;;-2.30;99.90;;;;;;5271302;28;20055;-82
2022/01/30 03:04:10;;;;;;;16.70;9.15;;;-2.60;99.90;;;;;;5272579;28;20069;-82
2022/01/30 03:06:42;;;;;;;15.27;9.38;;;-2.80;99.90;;;;;;5272464;28;20024;-83
2022/01/30 03:09:13;;;;;;;22.38;10.48;;;-2.80;99.90;;;;;;5272460;28;20107;-83
2022/01/30 03:11:44;;;;;;;16.30;10.63;;;-2.80;99.90;;;;;;5271068;28;20537;-83
2022/01/30 03:14:14;;;;;;;18.27;10.43;;;-2.80;99.90;;;;;;5272351;28;20016;-83
2022/01/30 03:16:45;;;;;;;19.83;11.82;;;-2.80;99.90;;;;;;5272355;28;20023;-84
2022/01/30 03:19:16;;;;;;;21.55;11.07;;;-2.60;99.90;;;;;;5271798;28;20407;-84
2022/01/30 03:21:47;;;;;;;20.70;11.48;;;-2.80;99.90;;;;;;5272341;28;20110;-83
2022/01/30 03:24:18;;;;;;;20.67;11.30;;;-2.60;99.90;;;;;;5272186;28;20083;-84
2022/01/30 03:26:49;;;;;;;23.05;11.13;;;-2.90;99.90;;;;;;5272203;28;20027;-84
2022/01/30 03:29:20;;;;;;;16.45;9.77;;;-3.20;99.90;;;;;;5272057;28;20024;-82
2022/01/30 03:31:51;;;;;;;20.05;9.73;;;-2.90;99.90;;;;;;5271928;28;20387;-80
2022/01/30 03:34:21;;;;;;;16.20;8.45;;;-3.00;99.90;;;;;;5271904;28;20031;-78
2022/01/30 03:36:53;;;;;;;14.25;7.80;;;-3.10;99.90;;;;;;5270829;28;20467;-83
2022/01/30 03:39:24;;;;;;;16.95;9.52;;;-2.80;99.90;;;;;;5271906;28;20423;-82
2022/01/30 03:41:55;;;;;;;18.60;9.50;;;-2.80;99.90;;;;;;5271799;28;20025;-83
2022/01/30 03:44:25;;;;;;;15.88;9.90;;;-2.80;99.90;;;;;;5271660;28;20471;-82
2022/01/30 03:46:56;;;;;;;19.30;10.15;;;-2.90;99.90;;;;;;5270330;28;20031;-82
2022/01/30 03:49:27;;;;;;;20.52;10.65;;;-2.90;99.90;;;;;;5271600;28;20054;-78
2022/01/30 03:51:58;;;;;;;23.73;11.65;;;-3.00;99.90;;;;;;5271486;28;20388;-83
2022/01/30 03:54:29;;;;;;;19.70;10.93;;;-2.90;99.90;;;;;;5270683;28;20024;-82
2022/01/30 03:57:00;;;;;;;16.95;10.88;;;-2.80;99.90;;;;;;5271471;28;20417;-82
2022/01/30 03:59:31;;;;;;;16.73;10.30;;;-3.00;99.90;;;;;;5271448;28;20050;-82
2022/01/30 04:02:03;;;;;;;20.85;11.05;;;-3.10;99.90;;;;;;5271350;28;20024;-82
2022/01/30 04:04:34;;;;;;;19.75;11.90;;;-3.00;99.90;;;;;;5271404;28;20375;-79
2022/01/30 04:07:05;;;;;;;18.20;11.90;;;-3.30;99.90;;;;;;5269995;28;20012;-80
2022/01/30 04:09:36;;;;;;;20.95;12.70;;;-3.20;99.90;;;;;;5271288;28;20028;-79
2022/01/30 04:12:08;;;;;;;22.75;12.35;;;-3.10;99.90;;;;;;5269863;28;20502;-78
2022/01/30 04:14:39;;;;;;;24.27;13.98;;;-2.80;99.90;;;;;;5271189;28;20028;-79
2022/01/30 04:17:13;;;;;;;18.38;11.88;;;-3.50;99.90;;;;;;5271008;28;20048;-78
2022/01/30 04:19:44;;;;;;;22.05;12.77;;;-3.20;99.90;;;;;;5270859;28;20494;-79
2022/01/30 04:22:14;;;;;;;24.13;13.45;;;-3.00;99.90;;;;;;5269791;28;20029;-79
2022/01/30 04:24:45;;;;;;;23.15;12.32;;;-3.20;99.90;;;;;;5271093;28;20058;-79
2022/01/30 04:27:16;;;;;;;20.70;12.32;;;-3.20;99.90;;;;;;5270919;28;20012;-78
2022/01/30 04:29:48;;;;;;;23.85;13.60;;;-3.10;99.90;;;;;;5270959;28;20024;-78
2022/01/30 04:32:19;;;;;;;21.13;13.68;;;-3.20;99.90;;;;;;5270719;28;20043;-77
2022/01/30 04:34:55;;;;;;;23.67;14.20;;;-3.40;99.90;;;;;;5270856;28;20024;-77
2022/01/30 04:37:44;;;;;;;21.65;12.32;;;-3.60;99.90;;;;;;5270720;28;20020;-78
2022/01/30 04:59:45;;;;;;;23.98;12.93;;;-3.30;99.90;;;;;;5270348;28;20020;-77
2022/01/30 05:02:37;;;;;;;22.17;13.93;;;-3.20;99.90;;;;;;5270093;28;20758;-76
2022/01/30 05:07:51;;;;;;;21.40;13.52;;;-3.10;99.90;;;;;;5270362;28;20125;-77
2022/01/30 05:10:22;;;;;;;24.98;13.68;;;-3.00;99.90;;;;;;5270040;28;20024;-77
2022/01/30 05:12:56;;;;;;;25.10;14.23;;;-3.20;99.90;;;;;;5269928;28;20039;-77
2022/01/30 05:15:28;;;;;;;24.10;14.35;;;-3.30;99.90;;;;;;5269866;28;20028;-77
2022/01/30 05:17:59;;;;;;;27.50;13.80;;;-3.20;99.90;;;;;;5269726;28;20038;-76
2022/01/30 05:20:30;;;;;;;24.50;13.82;;;-3.20;99.90;;;;;;5269575;28;20052;-77
2022/01/30 05:23:02;;;;;;;30.30;15.57;;;-3.10;99.90;;;;;;5269862;28;20028;-77
2022/01/30 05:25:33;;;;;;;23.30;14.30;;;-3.10;99.90;;;;;;5269806;28;20077;-77
2022/01/30 05:28:06;;;;;;;29.52;14.75;;;-3.00;99.90;;;;;;5269718;28;20056;-77
2022/01/30 05:30:37;;;;;;;23.90;14.32;;;-3.40;99.90;;;;;;5269577;28;20024;-77
2022/01/30 05:33:08;;;;;;;29.70;14.18;;;-3.40;99.90;;;;;;5269681;28;20110;-77
2022/01/30 05:35:40;;;;;;;26.45;14.15;;;-3.30;99.90;;;;;;5269618;28;20035;-77
2022/01/30 05:38:11;;;;;;;24.33;14.45;;;-3.20;99.90;;;;;;5269474;28;20027;-77
2022/01/30 05:40:42;;;;;;;23.20;13.95;;;-3.50;99.90;;;;;;5269499;28;20035;-77
2022/01/30 05:43:13;;;;;;;23.48;13.95;;;-3.30;99.90;;;;;;5269483;28;20023;-77
2022/01/30 05:45:48;;;;;;;23.75;14.52;;;-3.30;99.90;;;;;;5269407;28;20026;-77
2022/01/30 05:48:19;;;;;;;20.92;13.57;;;-3.20;99.90;;;;;;5269322;28;20016;-77
2022/01/30 05:50:50;;;;;;;24.35;14.07;;;-3.30;99.90;;;;;;5268953;28;20044;-76
2022/01/30 05:53:21;;;;;;;27.50;14.23;;;-3.20;99.90;;;;;;5269219;28;20035;-77
2022/01/30 05:55:52;;;;;;;21.40;13.82;;;-3.20;99.90;;;;;;5269194;28;20379;-77
2022/01/30 05:58:23;;;;;;;21.05;13.38;;;-3.20;99.90;;;;;;5269188;28;20074;-77
2022/01/30 06:00:54;;;;;;;22.35;12.07;;;-3.10;99.90;;;;;;5269245;28;20031;-77
2022/01/30 06:03:26;;;;;;;20.92;12.00;;;-2.90;99.90;;;;;;5269029;28;20052;-77
2022/01/30 06:05:57;;;;;;;20.50;12.68;;;-3.00;99.90;;;;;;5269020;28;20023;-77
2022/01/30 06:11:14;;;;;;;22.60;12.88;;;-3.10;99.90;;;;;;5268810;28;20042;-77
2022/01/30 06:13:45;;;;;;;20.08;12.77;;;-3.10;99.90;;;;;;5268992;28;20420;-77
2022/01/30 06:16:16;;;;;;;28.52;17.13;;;-2.60;99.90;;;;;;5268953;28;20027;-77
2022/01/30 06:18:47;;;;;;;38.53;20.50;;;-2.40;99.90;;;;;;5268291;28;20111;-77
2022/01/30 06:21:17;;;;;;;32.10;18.27;;;-2.30;99.90;;;;;;5268773;28;20098;-77
2022/01/30 06:23:49;;;;;;;28.70;15.90;;;-2.00;99.90;;;;;;5268791;28;20024;-77
2022/01/30 06:26:19;;;;;;;27.30;13.88;;;-1.90;99.90;;;;;;5268879;28;20024;-77
2022/01/30 06:28:50;;;;;;;21.60;12.13;;;-1.70;99.90;;;;;;5268802;28;20073;-77
2022/01/30 06:31:22;;;;;;;19.67;11.32;;;-1.30;99.90;;;;;;5268596;28;20467;-77
2022/01/30 06:33:53;;;;;;;17.15;11.15;;;-1.10;99.90;;;;;;5268786;28;20032;-77
2022/01/30 06:36:24;;;;;;;21.00;11.45;;;-0.90;99.90;;;;;;5268709;28;20483;-77
2022/01/30 06:38:55;;;;;;;24.50;11.90;;;-0.80;99.90;;;;;;5268685;28;20028;-78
2022/01/30 06:41:25;;;;;;;19.17;10.88;;;-0.50;99.90;;;;;;5268722;28;20031;-77
2022/01/30 06:43:56;;;;;;;18.55;10.85;;;-0.60;99.90;;;;;;5268614;28;20032;-77
2022/01/30 06:46:27;;;;;;;20.85;11.25;;;-0.30;99.90;;;;;;5268590;28;20028;-77
2022/01/30 06:48:58;;;;;;;21.65;11.80;;;-0.50;99.90;;;;;;5268460;28;20086;-77
2022/01/30 06:51:29;;;;;;;19.75;11.63;;;-0.40;99.90;;;;;;5268454;28;20029;-77
2022/01/30 06:53:59;;;;;;;20.33;12.02;;;-0.30;99.90;;;;;;5268571;28;20038;-77
2022/01/30 06:56:30;;;;;;;21.42;11.77;;;-0.10;99.90;;;;;;5268514;28;20008;-78
2022/01/30 06:59:01;;;;;;;21.30;12.43;;;0.20;99.90;;;;;;5268473;28;20107;-78
2022/01/30 07:01:32;;;;;;;20.23;11.95;;;0.20;99.90;;;;;;5268531;28;20016;-78
2022/01/30 07:04:03;;;;;;;16.58;10.90;;;0.50;99.90;;;;;;5267434;28;20035;-78
2022/01/30 07:06:34;;;;;;;20.13;12.48;;;0.50;99.90;;;;;;5268518;28;20012;-77
2022/01/30 07:09:05;;;;;;;23.67;12.50;;;0.80;99.90;;;;;;5268520;28;20478;-77
2022/01/30 07:11:35;;;;;;;21.55;12.13;;;0.80;99.90;;;;;;5267149;28;20044;-76
2022/01/30 07:14:06;;;;;;;22.02;12.77;;;0.80;99.90;;;;;;5268382;28;20039;-77
2022/01/30 07:16:37;;;;;;;19.80;11.23;;;1.10;99.90;;;;;;5268373;28;20024;-77
2022/01/30 07:19:08;;;;;;;20.25;12.10;;;1.10;99.90;;;;;;5267989;28;20027;-77
2022/01/30 07:21:39;;;;;;;18.35;12.05;;;1.20;99.90;;;;;;5268391;28;20040;-77
2022/01/30 07:24:10;;;;;;;18.30;10.90;;;1.50;99.90;;;;;;5268290;28;20020;-77
2022/01/30 07:26:41;;;;;;;16.48;11.07;;;1.70;99.90;;;;;;5268257;28;20349;-77
2022/01/30 07:29:12;;;;;;;21.25;12.50;;;1.60;99.90;;;;;;5268291;28;20016;-77
2022/01/30 07:31:43;;;;;;;19.52;11.57;;;1.60;99.90;;;;;;5271513;28;20040;-77
2022/01/30 07:34:14;;;;;;;22.58;12.38;;;2.10;99.90;;;;;;5271925;28;20020;-77
2022/01/30 07:36:46;;;;;;;22.35;13.23;;;1.90;99.90;;;;;;5271967;28;20039;-79
2022/01/30 07:39:17;;;;;;;27.65;15.18;;;2.30;99.90;;;;;;5271956;28;20036;-78
2022/01/30 07:41:48;;;;;;;32.25;16.48;;;2.60;99.90;;;;;;5271896;28;20036;-78
2022/01/30 07:44:19;;;;;;;21.27;13.13;;;2.50;99.90;;;;;;5271775;28;20099;-78
2022/01/30 07:46:50;;;;;;;22.70;12.38;;;2.60;99.90;;;;;;5271687;28;20028;-77
2022/01/30 07:49:21;;;;;;;17.70;9.73;;;2.90;99.90;;;;;;5271655;28;20092;-78
2022/01/30 07:51:53;;;;;;;22.95;10.40;;;3.40;99.90;;;;;;5271519;28;20450;-79
2022/01/30 07:54:24;;;;;;;17.27;9.82;;;3.60;99.90;;;;;;5271589;28;20459;-79
2022/01/30 07:56:55;;;;;;;20.50;11.77;;;4.00;99.90;;;;;;5271508;28;20035;-79
2022/01/30 07:59:26;;;;;;;22.23;11.95;;;3.70;99.90;;;;;;5271524;28;20016;-79
2022/01/30 08:01:56;;;;;;;20.38;12.15;;;4.10;99.90;;;;;;5271512;28;20024;-81
2022/01/30 08:04:28;;;;;;;19.75;8.73;;;4.30;99.90;;;;;;5271560;28;20028;-81
2022/01/30 08:07:00;;;;;;;15.27;8.98;;;4.30;99.90;;;;;;5271204;28;20027;-78
2022/01/30 08:09:31;;;;;;;16.95;9.55;;;4.50;99.90;;;;;;5271240;28;20028;-77
2022/01/30 08:12:02;;;;;;;17.83;9.65;;;4.30;99.90;;;;;;5271115;28;20379;-81
2022/01/30 08:14:33;;;;;;;16.25;9.60;;;4.80;99.90;;;;;;5271326;28;20091;-77
2022/01/30 08:17:04;;;;;;;16.92;9.15;;;4.90;99.90;;;;;;5271126;28;20099;-82
2022/01/30 08:19:35;;;;;;;20.75;9.10;;;4.90;99.90;;;;;;5271038;28;20487;-80
2022/01/30 08:22:06;;;;;;;16.80;10.27;;;5.50;99.90;;;;;;5271080;28;20040;-82
2022/01/30 08:24:36;;;;;;;24.02;11.25;;;5.70;99.90;;;;;;5270964;28;20046;-79
2022/01/30 08:27:07;;;;;;;16.10;9.93;;;5.70;99.90;;;;;;5270961;28;20028;-78
2022/01/30 08:29:38;;;;;;;21.65;11.57;;;6.00;99.90;;;;;;5270933;28;20031;-83
2022/01/30 08:32:11;;;;;;;25.90;13.85;;;5.40;99.90;;;;;;5269553;28;20391;-78
2022/01/30 08:34:42;;;;;;;14.45;8.43;;;6.00;99.90;;;;;;5269684;28;20055;-78
2022/01/30 08:37:13;;;;;;;23.75;10.27;;;5.70;99.90;;;;;;5270652;28;20078;-80
2022/01/30 08:39:43;;;;;;;54.38;24.65;;;5.70;99.90;;;;;;5270723;28;20387;-81
2022/01/30 08:42:14;;;;;;;16.55;9.23;;;5.80;99.90;;;;;;5270391;28;20031;-79
2022/01/30 08:44:45;;;;;;;17.05;10.98;;;6.00;99.90;;;;;;5270654;28;20030;-80
2022/01/30 08:47:16;;;;;;;19.63;10.30;;;6.10;99.90;;;;;;5270475;28;20016;-79
2022/01/30 08:49:46;;;;;;;15.23;8.80;;;5.90;99.90;;;;;;5269212;28;20027;-79
2022/01/30 08:52:19;;;;;;;18.27;9.23;;;6.60;99.90;;;;;;5270462;28;20487;-79
2022/01/30 08:54:51;;;;;;;16.25;10.88;;;6.60;99.90;;;;;;5270466;28;20038;-79
2022/01/30 08:57:21;;;;;;;16.08;8.77;;;7.00;99.90;;;;;;5270390;28;20020;-78
2022/01/30 08:59:54;;;;;;;15.10;8.55;;;6.10;99.90;;;;;;5270309;28;20035;-79
2022/01/30 09:02:25;;;;;;;15.88;8.98;;;6.50;99.90;;;;;;5270184;28;20016;-79
2022/01/30 09:04:56;;;;;;;18.17;9.50;;;6.80;99.90;;;;;;5270262;28;20039;-79
2022/01/30 09:07:27;;;;;;;13.57;8.57;;;7.20;99.90;;;;;;5270085;28;20008;-80
2022/01/30 09:09:57;;;;;;;18.00;8.32;;;6.90;99.90;;;;;;5270221;28;20371;-79
2022/01/30 09:12:28;;;;;;;14.73;8.80;;;6.90;99.90;;;;;;5268782;28;20036;-79
2022/01/30 09:15:00;;;;;;;14.63;8.88;;;6.80;99.90;;;;;;5270123;28;20020;-80
2022/01/30 09:17:30;;;;;;;16.10;9.07;;;6.90;99.90;;;;;;5269737;28;20024;-79
2022/01/30 09:20:03;;;;;;;20.70;10.27;;;6.40;99.90;;;;;;5269562;28;20044;-79
2022/01/30 09:22:34;;;;;;;15.20;9.05;;;6.20;99.90;;;;;;5269910;28;20017;-79
2022/01/30 09:25:06;;;;;;;15.60;9.88;;;6.80;99.90;;;;;;5269830;28;20028;-80
2022/01/30 09:27:37;;;;;;;12.20;7.38;;;7.00;99.90;;;;;;5269708;28;20032;-79
2022/01/30 09:30:10;;;;;;;15.13;9.40;;;6.70;99.90;;;;;;5269796;28;20027;-79
2022/01/30 09:32:43;;;;;;;16.65;9.45;;;6.80;99.90;;;;;;5269644;28;20032;-79
2022/01/30 09:35:14;;;;;;;15.57;10.50;;;7.50;99.90;;;;;;5269639;28;20020;-80
2022/01/30 09:37:45;;;;;;;16.60;10.85;;;7.10;99.90;;;;;;5269567;28;20393;-79
2022/01/30 09:40:17;;;;;;;20.40;10.80;;;6.80;99.90;;;;;;5269743;28;20507;-78
2022/01/30 09:42:48;;;;;;;16.77;10.15;;;6.70;99.90;;;;;;5269449;28;20033;-80
2022/01/30 09:45:22;;;;;;;18.17;10.48;;;7.00;99.90;;;;;;5269436;28;20035;-79
2022/01/30 09:47:53;;;;;;;19.90;11.13;;;7.40;99.90;;;;;;5269254;28;20055;-79
2022/01/30 09:50:25;;;;;;;16.17;10.25;;;7.40;99.90;;;;;;5269127;28;20032;-79
2022/01/30 09:52:55;;;;;;;23.77;11.98;;;7.70;99.90;;;;;;5268539;28;20031;-79
2022/01/30 09:55:26;;;;;;;16.25;10.95;;;7.10;99.90;;;;;;5267913;28;20077;-79
2022/01/30 09:57:57;;;;;;;18.05;10.02;;;7.10;99.90;;;;;;5269241;28;20375;-79
2022/01/30 10:00:28;;;;;;;14.25;9.63;;;7.80;99.90;;;;;;5269295;28;20104;-79
2022/01/30 10:02:59;;;;;;;18.05;9.13;;;8.40;99.90;;;;;;5269181;28;20031;-79
2022/01/30 10:05:34;;;;;;;13.55;8.40;;;8.50;99.90;;;;;;5268979;28;20020;-80
2022/01/30 10:08:05;;;;;;;16.60;8.73;;;8.40;99.90;;;;;;5267814;28;20467;-79
2022/01/30 10:10:42;;;;;;;10.90;7.35;;;7.80;99.90;;;;;;5284471;28;20375;-79
2022/01/30 10:13:14;;;;;;;13.75;7.80;;;7.60;99.90;;;;;;5291309;28;20100;-80
2022/01/30 10:15:56;;;;;;;11.88;6.85;;;7.60;99.90;;;;;;5284049;28;20395;-79
2022/01/30 10:18:32;;;;;;;10.40;6.55;;;7.20;99.90;;;;;;5269111;28;20114;-79
2022/01/30 10:21:02;;;;;;;10.23;7.22;;;7.40;99.90;;;;;;5267766;28;20060;-78
2022/01/30 10:23:36;;;;;;;10.80;7.35;;;7.20;99.90;;;;;;5268767;28;20056;-78
2022/01/30 10:26:12;;;;;;;13.32;8.27;;;7.50;99.90;;;;;;5268777;28;20070;-78
2022/01/30 10:28:43;;;;;;;11.15;7.25;;;7.50;99.90;;;;;;5268975;28;20027;-77
2022/01/30 10:31:13;;;;;;;12.15;7.75;;;7.50;99.90;;;;;;5268496;28;20036;-77
2022/01/30 10:33:46;;;;;;;17.05;7.70;;;7.50;99.90;;;;;;5268841;28;20205;-77
2022/01/30 10:36:30;;;;;;;15.10;8.30;;;7.50;99.90;;;;;;5268700;28;20036;-78
2022/01/30 10:39:13;;;;;;;13.18;8.05;;;7.70;99.90;;;;;;5268806;28;20183;-78
2022/01/30 10:41:53;;;;;;;15.93;7.75;;;7.50;99.90;;;;;;5268850;28;20158;-78
2022/01/30 10:44:24;;;;;;;;;;;7.80;99.90;;;;;;5269159;28;20482;-78
2022/01/30 10:46:55;;;;;;;13.70;7.82;;;7.60;99.90;;;;;;5268556;28;19904;-78
2022/01/30 10:49:26;;;;;;;15.65;7.45;;;7.60;99.90;;;;;;5267379;28;20028;-79
2022/01/30 10:52:01;;;;;;;13.50;7.30;;;8.00;99.90;;;;;;5268504;28;20036;-77
2022/01/30 10:54:34;;;;;;;16.65;10.05;;;8.10;99.90;;;;;;5268617;28;20375;-78
2022/01/30 10:57:06;;;;;;;16.42;9.70;;;8.20;99.90;;;;;;5268609;28;20484;-76
2022/01/30 10:59:42;;;;;;;13.27;6.93;;;8.10;99.90;;;;;;5268586;28;20059;-79
2022/01/30 11:02:18;;;;;;;27.90;14.50;;;7.80;99.90;;;;;;5267353;28;20026;-77
2022/01/30 11:04:50;;;;;;;16.00;10.40;;;8.10;99.90;;;;;;5270833;28;20020;-78
2022/01/30 11:07:29;;;;;;;14.80;8.10;;;8.10;99.90;;;;;;5272502;28;20420;-77
2022/01/30 11:10:07;;;;;;;13.18;8.90;;;8.40;99.90;;;;;;5272674;28;20085;-78
2022/01/30 11:12:57;;;;;;;19.13;9.77;;;8.00;99.90;;;;;;5272392;28;20062;-78
2022/01/30 11:18:02;;;;;;;13.23;9.30;;;8.60;99.90;;;;;;5272431;28;20459;-78
2022/01/30 11:20:34;;;;;;;15.05;8.73;;;8.80;99.90;;;;;;5272026;28;20047;-78
2022/01/30 11:23:06;;;;;;;11.13;5.65;;;8.70;99.90;;;;;;5272289;28;20475;-78
2022/01/30 11:25:38;;;;;;;16.45;9.68;;;8.10;99.90;;;;;;5272161;28;20020;-78
2022/01/30 11:28:11;;;;;;;13.65;8.63;;;8.20;99.90;;;;;;5272189;28;20023;-78
2022/01/30 11:30:43;;;;;;;11.93;8.30;;;8.50;99.90;;;;;;5271986;28;20032;-78
2022/01/30 11:33:14;;;;;;;19.23;11.73;;;8.20;99.90;;;;;;5272099;28;20032;-78
2022/01/30 11:35:45;;;;;;;21.60;11.43;;;8.20;99.90;;;;;;5271951;28;20548;-78
2022/01/30 11:38:17;;;;;;;14.48;9.13;;;8.40;99.90;;;;;;5271935;28;20051;-78
2022/01/30 11:41:21;;;;;;;23.05;13.27;;;8.20;99.90;;;;;;5271831;28;20017;-78
2022/01/30 11:44:19;;;;;;;12.85;8.15;;;7.80;99.90;;;;;;5259529;28;20044;-78
2022/01/30 11:46:56;;;;;;;12.13;8.02;;;8.00;99.90;;;;;;5271649;28;20032;-78
2022/01/30 11:50:03;;;;;;;14.02;8.18;;;8.00;99.90;;;;;;5271843;28;20032;-78
2022/01/30 11:53:08;;;;;;;15.43;9.02;;;8.10;99.90;;;;;;5271445;28;20044;-78
2022/01/30 11:55:54;;;;;;;11.98;6.72;;;8.10;99.90;;;;;;5271594;28;20032;-78
2022/01/30 11:58:33;;;;;;;13.48;7.18;;;7.90;99.90;;;;;;5271635;28;20020;-79
2022/01/30 12:01:25;;;;;;;11.15;7.32;;;7.90;99.90;;;;;;5271569;28;20410;-78
2022/01/30 12:04:02;;;;;;;11.02;6.63;;;7.90;99.90;;;;;;5271445;28;20081;-78
2022/01/30 12:06:47;;;;;;;12.07;7.18;;;7.90;99.90;;;;;;5271533;28;20048;-78
2022/01/30 12:09:20;;;;;;;11.13;7.22;;;7.90;99.90;;;;;;5271272;28;20035;-78
2022/01/30 12:11:52;;;;;;;15.90;7.65;;;7.80;99.90;;;;;;5271112;28;20028;-78
2022/01/30 12:14:23;;;;;;;13.70;7.30;;;8.00;99.90;;;;;;5271342;28;20016;-78
2022/01/30 12:16:56;;;;;;;10.05;7.07;;;7.90;99.90;;;;;;5270247;28;20077;-77
2022/01/30 12:19:47;;;;;;;10.27;6.47;;;7.80;99.90;;;;;;5270852;28;20375;-78
2022/01/30 12:22:18;;;;;;;10.05;6.35;;;7.80;99.90;;;;;;5271124;28;20066;-78
2022/01/30 12:24:52;;;;;;;9.73;7.22;;;7.80;99.90;;;;;;5269757;28;20059;-78
2022/01/30 12:27:49;;;;;;;13.35;7.65;;;7.90;99.90;;;;;;5270706;28;20081;-78
2022/01/30 12:30:38;;;;;;;18.73;8.85;;;7.80;99.90;;;;;;5271054;28;20463;-78
2022/01/30 12:33:32;;;;;;;13.73;8.00;;;7.60;99.90;;;;;;5270907;28;20046;-78
2022/01/30 12:36:12;;;;;;;12.43;6.63;;;7.60;99.90;;;;;;5270871;28;20162;-79
2022/01/30 12:38:43;;;;;;;10.48;6.90;;;7.70;99.90;;;;;;5269518;28;20498;-79
2022/01/30 12:41:19;;;;;;;11.95;7.13;;;7.60;99.90;;;;;;5270677;28;20032;-78
2022/01/30 12:43:55;;;;;;;16.17;7.40;;;7.70;99.90;;;;;;5269409;28;20032;-78
2022/01/30 12:46:30;;;;;;;10.70;7.45;;;7.80;99.90;;;;;;5270625;28;20020;-78
2022/01/30 12:49:14;;;;;;;10.02;6.43;;;7.70;99.90;;;;;;5270381;28;20437;-78
2022/01/30 12:51:49;;;;;;;12.07;6.82;;;7.70;99.90;;;;;;5270347;28;20099;-78
2022/01/30 12:54:23;;;;;;;13.77;7.20;;;7.70;99.90;;;;;;5270473;28;20410;-78
2022/01/30 12:56:56;;;;;;;14.30;6.45;;;7.70;99.90;;;;;;5270354;28;20107;-78
2022/01/30 12:59:27;;;;;;;13.95;9.13;;;7.60;99.90;;;;;;5269034;28;20368;-78
2022/01/30 13:02:09;;;;;;;33.10;16.17;;;7.60;99.90;;;;;;5270335;28;20032;-78
2022/01/30 13:04:40;;;;;;;11.73;7.63;;;7.40;99.90;;;;;;5270280;28;20016;-79
2022/01/30 13:07:13;;;;;;;28.30;13.88;;;7.60;99.90;;;;;;5270168;28;20383;-78
2022/01/30 13:09:44;;;;;;;18.90;10.43;;;7.40;99.90;;;;;;5270098;28;20053;-78
2022/01/30 13:12:16;;;;;;;20.35;9.00;;;7.40;99.90;;;;;;5269935;28;20035;-79
2022/01/30 13:14:47;;;;;;;19.20;11.27;;;7.50;99.90;;;;;;5270084;28;20051;-79
2022/01/30 13:17:18;;;;;;;44.58;23.45;;;7.40;99.90;;;;;;5269857;28;20052;-80
2022/01/30 13:19:50;;;;;;;12.30;7.15;;;7.40;99.90;;;;;;5269747;28;20578;-80
2022/01/30 13:22:43;;;;;;;17.50;8.00;;;7.50;99.90;;;;;;5269926;28;20078;-79
2022/01/30 13:25:16;;;;;;;58.55;30.38;;;7.40;99.90;;;;;;5269741;28;20459;-79
2022/01/30 13:27:52;;;;;;;17.63;8.15;;;7.40;99.90;;;;;;5268798;28;20491;-79
2022/01/30 13:30:25;;;;;;;8.57;5.68;;;7.20;99.90;;;;;;5269841;28;20103;-80
2022/01/30 13:32:56;;;;;;;13.82;7.85;;;7.30;99.90;;;;;;5269543;28;20446;-80
2022/01/30 13:35:31;;;;;;;9.77;6.15;;;7.30;99.90;;;;;;5269703;28;20032;-80
2022/01/30 13:38:05;;;;;;;8.27;5.25;;;7.30;99.90;;;;;;5269563;28;20479;-79
2022/01/30 13:40:54;;;;;;;10.05;5.90;;;7.20;99.90;;;;;;5269602;28;20119;-80
2022/01/30 13:43:28;;;;;;;8.90;5.28;;;7.20;99.90;;;;;;5269640;28;20077;-79
2022/01/30 13:48:49;;;;;;;18.65;7.72;;;7.00;99.90;;;;;;5269510;28;20046;-80
2022/01/30 13:51:21;;;;;;;10.48;5.85;;;7.10;99.90;;;;;;5267840;28;20051;-79
2022/01/30 13:54:10;;;;;;;11.52;5.50;;;7.10;99.90;;;;;;5269363;28;20027;-79
2022/01/30 13:56:41;;;;;;;11.45;5.30;;;7.00;99.90;;;;;;5269304;28;20456;-79
2022/01/30 13:59:27;;;;;;;7.97;5.65;;;7.00;99.90;;;;;;5268013;28;20030;-80